sensor_id;sensor_type;location;lat;lon;timestamp;P1;durP1;ratioP1;P2;durP2;ratioP2
64871;SDS011;51351;51.450;6.614;2024-03-08T00:00:02;20.10;;;12.95;;
64871;SDS011;51351;51.450;6.614;2024-03-08T00:02:41;18.73;;;12.02;;
64871;SDS011;51351;51.450;6.614;2024-03-08T00:05:07;19.33;;;11.30;;
64871;SDS011;51351;51.450;6.614;2024-03-08T00:07:34;18.95;;;11.80;;
64871;SDS011;51351;51.450;6.614;2024-03-08T00:09:59;18.67;;;11.25;;
64871;SDS011;51351;51.450;6.614;2024-03-08T00:12:25;19.02;;;12.18;;
64871;SDS011;51351;51.450;6.614;2024-03-08T00:14:52;20.38;;;12.73;;
64871;SDS011;51351;51.450;6.614;2024-03-08T00:17:17;17.70;;;12.15;;
64871;SDS011;51351;51.450;6.614;2024-03-08T00:19:43;17.90;;;11.55;;
64871;SDS011;51351;51.450;6.614;2024-03-08T00:22:08;21.70;;;11.00;;
64871;SDS011;51351;51.450;6.614;2024-03-08T00:24:33;18.50;;;13.77;;
64871;SDS011;51351;51.450;6.614;2024-03-08T00:26:59;18.98;;;13.30;;
64871;SDS011;51351;51.450;6.614;2024-03-08T00:29:24;18.07;;;11.27;;
64871;SDS011;51351;51.450;6.614;2024-03-08T00:31:49;17.50;;;12.38;;
64871;SDS011;51351;51.450;6.614;2024-03-08T00:34:15;21.00;;;12.77;;
64871;SDS011;51351;51.450;6.614;2024-03-08T00:36:41;18.60;;;14.05;;
64871;SDS011;51351;51.450;6.614;2024-03-08T00:39:06;20.42;;;14.35;;
64871;SDS011;51351;51.450;6.614;2024-03-08T00:41:32;19.88;;;12.82;;
64871;SDS011;51351;51.450;6.614;2024-03-08T00:43:57;16.10;;;12.18;;
64871;SDS011;51351;51.450;6.614;2024-03-08T00:46:22;17.40;;;12.57;;
64871;SDS011;51351;51.450;6.614;2024-03-08T00:48:48;16.75;;;11.95;;
64871;SDS011;51351;51.450;6.614;2024-03-08T00:51:13;16.90;;;12.02;;
64871;SDS011;51351;51.450;6.614;2024-03-08T00:53:40;15.93;;;11.75;;
64871;SDS011;51351;51.450;6.614;2024-03-08T00:56:05;16.13;;;10.77;;
64871;SDS011;51351;51.450;6.614;2024-03-08T00:58:31;15.95;;;11.05;;
64871;SDS011;51351;51.450;6.614;2024-03-08T01:00:56;17.63;;;12.98;;
64871;SDS011;51351;51.450;6.614;2024-03-08T01:03:22;18.10;;;11.52;;
64871;SDS011;51351;51.450;6.614;2024-03-08T01:05:47;18.63;;;11.95;;
64871;SDS011;51351;51.450;6.614;2024-03-08T01:08:13;15.97;;;11.07;;
64871;SDS011;51351;51.450;6.614;2024-03-08T01:10:38;19.30;;;13.18;;
64871;SDS011;51351;51.450;6.614;2024-03-08T01:13:03;18.05;;;12.57;;
64871;SDS011;51351;51.450;6.614;2024-03-08T01:15:29;17.75;;;12.02;;
64871;SDS011;51351;51.450;6.614;2024-03-08T01:17:55;15.23;;;11.70;;
64871;SDS011;51351;51.450;6.614;2024-03-08T01:20:20;18.23;;;12.27;;
64871;SDS011;51351;51.450;6.614;2024-03-08T01:22:46;18.50;;;12.57;;
64871;SDS011;51351;51.450;6.614;2024-03-08T01:25:11;18.80;;;15.30;;
64871;SDS011;51351;51.450;6.614;2024-03-08T01:27:36;23.17;;;19.33;;
64871;SDS011;51351;51.450;6.614;2024-03-08T01:30:02;18.57;;;13.10;;
64871;SDS011;51351;51.450;6.614;2024-03-08T01:32:29;17.02;;;11.80;;
64871;SDS011;51351;51.450;6.614;2024-03-08T01:34:54;17.48;;;12.13;;
64871;SDS011;51351;51.450;6.614;2024-03-08T01:37:19;24.50;;;12.60;;
64871;SDS011;51351;51.450;6.614;2024-03-08T01:39:45;20.23;;;13.07;;
64871;SDS011;51351;51.450;6.614;2024-03-08T01:42:10;17.75;;;11.55;;
64871;SDS011;51351;51.450;6.614;2024-03-08T01:44:38;19.40;;;12.98;;
64871;SDS011;51351;51.450;6.614;2024-03-08T01:47:04;19.95;;;14.70;;
64871;SDS011;51351;51.450;6.614;2024-03-08T01:49:30;20.55;;;13.55;;
64871;SDS011;51351;51.450;6.614;2024-03-08T01:51:56;20.38;;;13.05;;
64871;SDS011;51351;51.450;6.614;2024-03-08T01:54:21;18.95;;;13.98;;
64871;SDS011;51351;51.450;6.614;2024-03-08T01:56:48;16.55;;;12.07;;
64871;SDS011;51351;51.450;6.614;2024-03-08T01:59:14;18.65;;;13.82;;
64871;SDS011;51351;51.450;6.614;2024-03-08T02:01:39;20.80;;;13.55;;
64871;SDS011;51351;51.450;6.614;2024-03-08T02:04:05;23.02;;;15.40;;
64871;SDS011;51351;51.450;6.614;2024-03-08T02:06:32;22.45;;;13.13;;
64871;SDS011;51351;51.450;6.614;2024-03-08T02:08:57;16.88;;;12.13;;
64871;SDS011;51351;51.450;6.614;2024-03-08T02:11:23;21.85;;;14.35;;
64871;SDS011;51351;51.450;6.614;2024-03-08T02:13:48;20.88;;;13.25;;
64871;SDS011;51351;51.450;6.614;2024-03-08T02:16:19;18.30;;;14.35;;
64871;SDS011;51351;51.450;6.614;2024-03-08T02:18:45;22.45;;;14.48;;
64871;SDS011;51351;51.450;6.614;2024-03-08T02:21:10;22.70;;;12.98;;
64871;SDS011;51351;51.450;6.614;2024-03-08T02:23:35;17.33;;;11.47;;
64871;SDS011;51351;51.450;6.614;2024-03-08T02:26:02;22.75;;;13.55;;
64871;SDS011;51351;51.450;6.614;2024-03-08T02:28:29;21.17;;;13.52;;
64871;SDS011;51351;51.450;6.614;2024-03-08T02:30:55;17.35;;;15.18;;
64871;SDS011;51351;51.450;6.614;2024-03-08T02:33:21;20.02;;;12.02;;
64871;SDS011;51351;51.450;6.614;2024-03-08T02:35:47;21.33;;;13.27;;
64871;SDS011;51351;51.450;6.614;2024-03-08T02:38:13;19.50;;;13.43;;
64871;SDS011;51351;51.450;6.614;2024-03-08T02:40:42;19.25;;;13.27;;
64871;SDS011;51351;51.450;6.614;2024-03-08T02:43:07;21.63;;;13.70;;
64871;SDS011;51351;51.450;6.614;2024-03-08T02:45:32;22.48;;;15.93;;
64871;SDS011;51351;51.450;6.614;2024-03-08T02:47:58;17.23;;;13.67;;
64871;SDS011;51351;51.450;6.614;2024-03-08T02:50:23;13.45;;;10.07;;
64871;SDS011;51351;51.450;6.614;2024-03-08T02:52:50;20.15;;;13.15;;
64871;SDS011;51351;51.450;6.614;2024-03-08T02:55:15;19.13;;;13.05;;
64871;SDS011;51351;51.450;6.614;2024-03-08T02:57:41;26.02;;;15.23;;
64871;SDS011;51351;51.450;6.614;2024-03-08T03:00:07;21.55;;;12.85;;
64871;SDS011;51351;51.450;6.614;2024-03-08T03:02:34;21.40;;;14.75;;
64871;SDS011;51351;51.450;6.614;2024-03-08T03:04:59;21.13;;;12.63;;
64871;SDS011;51351;51.450;6.614;2024-03-08T03:07:29;21.17;;;14.38;;
64871;SDS011;51351;51.450;6.614;2024-03-08T03:09:55;24.30;;;14.37;;
64871;SDS011;51351;51.450;6.614;2024-03-08T03:12:20;17.85;;;13.38;;
64871;SDS011;51351;51.450;6.614;2024-03-08T03:14:45;26.63;;;15.17;;
64871;SDS011;51351;51.450;6.614;2024-03-08T03:17:11;27.42;;;15.93;;
64871;SDS011;51351;51.450;6.614;2024-03-08T03:19:36;20.63;;;15.30;;
64871;SDS011;51351;51.450;6.614;2024-03-08T03:22:01;27.77;;;14.83;;
64871;SDS011;51351;51.450;6.614;2024-03-08T03:24:27;24.73;;;15.32;;
64871;SDS011;51351;51.450;6.614;2024-03-08T03:26:54;21.20;;;15.07;;
64871;SDS011;51351;51.450;6.614;2024-03-08T03:29:20;25.65;;;13.88;;
64871;SDS011;51351;51.450;6.614;2024-03-08T03:31:45;23.77;;;15.30;;
64871;SDS011;51351;51.450;6.614;2024-03-08T03:34:11;25.77;;;15.95;;
64871;SDS011;51351;51.450;6.614;2024-03-08T03:36:37;20.85;;;14.75;;
64871;SDS011;51351;51.450;6.614;2024-03-08T03:39:03;25.02;;;14.35;;
64871;SDS011;51351;51.450;6.614;2024-03-08T03:41:36;25.90;;;15.82;;
64871;SDS011;51351;51.450;6.614;2024-03-08T03:44:01;25.58;;;15.07;;
64871;SDS011;51351;51.450;6.614;2024-03-08T03:46:26;23.77;;;13.60;;
64871;SDS011;51351;51.450;6.614;2024-03-08T03:48:52;26.08;;;19.95;;
64871;SDS011;51351;51.450;6.614;2024-03-08T03:51:18;23.77;;;15.13;;
64871;SDS011;51351;51.450;6.614;2024-03-08T03:53:44;18.80;;;14.23;;
64871;SDS011;51351;51.450;6.614;2024-03-08T03:56:09;23.98;;;15.57;;
64871;SDS011;51351;51.450;6.614;2024-03-08T03:58:35;19.73;;;13.38;;
64871;SDS011;51351;51.450;6.614;2024-03-08T04:01:01;22.80;;;13.57;;
64871;SDS011;51351;51.450;6.614;2024-03-08T04:03:26;23.92;;;16.50;;
64871;SDS011;51351;51.450;6.614;2024-03-08T04:05:51;24.83;;;16.98;;
64871;SDS011;51351;51.450;6.614;2024-03-08T04:08:17;21.07;;;14.53;;
64871;SDS011;51351;51.450;6.614;2024-03-08T04:10:42;24.27;;;15.95;;
64871;SDS011;51351;51.450;6.614;2024-03-08T04:13:07;24.08;;;15.23;;
64871;SDS011;51351;51.450;6.614;2024-03-08T04:15:34;23.60;;;14.32;;
64871;SDS011;51351;51.450;6.614;2024-03-08T04:18:00;25.60;;;16.40;;
64871;SDS011;51351;51.450;6.614;2024-03-08T04:20:25;21.63;;;15.07;;
64871;SDS011;51351;51.450;6.614;2024-03-08T04:22:50;24.92;;;18.77;;
64871;SDS011;51351;51.450;6.614;2024-03-08T04:25:16;28.98;;;16.60;;
64871;SDS011;51351;51.450;6.614;2024-03-08T04:27:41;23.27;;;15.93;;
64871;SDS011;51351;51.450;6.614;2024-03-08T04:30:07;22.63;;;14.80;;
64871;SDS011;51351;51.450;6.614;2024-03-08T04:32:33;24.80;;;16.40;;
64871;SDS011;51351;51.450;6.614;2024-03-08T04:34:58;24.17;;;16.50;;
64871;SDS011;51351;51.450;6.614;2024-03-08T04:37:23;25.33;;;15.50;;
64871;SDS011;51351;51.450;6.614;2024-03-08T04:39:50;15.00;;;9.18;;
64871;SDS011;51351;51.450;6.614;2024-03-08T04:42:15;22.52;;;14.10;;
64871;SDS011;51351;51.450;6.614;2024-03-08T04:44:41;28.58;;;16.80;;
64871;SDS011;51351;51.450;6.614;2024-03-08T04:47:06;23.40;;;15.05;;
64871;SDS011;51351;51.450;6.614;2024-03-08T04:49:34;25.65;;;16.30;;
64871;SDS011;51351;51.450;6.614;2024-03-08T04:52:02;26.52;;;16.95;;
64871;SDS011;51351;51.450;6.614;2024-03-08T04:54:28;23.60;;;15.20;;
64871;SDS011;51351;51.450;6.614;2024-03-08T04:56:53;29.10;;;17.13;;
64871;SDS011;51351;51.450;6.614;2024-03-08T04:59:19;21.50;;;14.40;;
64871;SDS011;51351;51.450;6.614;2024-03-08T05:01:44;26.48;;;15.10;;
64871;SDS011;51351;51.450;6.614;2024-03-08T05:04:09;25.90;;;17.23;;
64871;SDS011;51351;51.450;6.614;2024-03-08T05:06:35;27.27;;;17.10;;
64871;SDS011;51351;51.450;6.614;2024-03-08T05:09:01;28.30;;;15.45;;
64871;SDS011;51351;51.450;6.614;2024-03-08T05:11:39;24.35;;;16.05;;
64871;SDS011;51351;51.450;6.614;2024-03-08T05:14:04;25.33;;;15.27;;
64871;SDS011;51351;51.450;6.614;2024-03-08T05:16:29;25.65;;;14.45;;
64871;SDS011;51351;51.450;6.614;2024-03-08T05:18:55;23.02;;;13.98;;
64871;SDS011;51351;51.450;6.614;2024-03-08T05:21:21;26.75;;;15.63;;
64871;SDS011;51351;51.450;6.614;2024-03-08T05:23:47;24.13;;;15.20;;
64871;SDS011;51351;51.450;6.614;2024-03-08T05:26:12;24.30;;;15.77;;
64871;SDS011;51351;51.450;6.614;2024-03-08T05:28:38;25.23;;;13.80;;
64871;SDS011;51351;51.450;6.614;2024-03-08T05:31:03;21.60;;;11.80;;
64871;SDS011;51351;51.450;6.614;2024-03-08T05:33:28;23.13;;;14.70;;
64871;SDS011;51351;51.450;6.614;2024-03-08T05:35:54;25.30;;;16.35;;
64871;SDS011;51351;51.450;6.614;2024-03-08T05:38:19;27.75;;;15.18;;
64871;SDS011;51351;51.450;6.614;2024-03-08T05:40:52;20.88;;;14.27;;
64871;SDS011;51351;51.450;6.614;2024-03-08T05:43:17;25.63;;;15.23;;
64871;SDS011;51351;51.450;6.614;2024-03-08T05:45:45;24.35;;;15.63;;
64871;SDS011;51351;51.450;6.614;2024-03-08T05:48:10;28.60;;;15.77;;
64871;SDS011;51351;51.450;6.614;2024-03-08T05:50:37;27.40;;;16.48;;
64871;SDS011;51351;51.450;6.614;2024-03-08T05:53:03;24.02;;;15.00;;
64871;SDS011;51351;51.450;6.614;2024-03-08T05:55:32;26.65;;;16.60;;
64871;SDS011;51351;51.450;6.614;2024-03-08T05:58:00;31.50;;;14.93;;
64871;SDS011;51351;51.450;6.614;2024-03-08T06:00:26;22.85;;;14.02;;
64871;SDS011;51351;51.450;6.614;2024-03-08T06:02:51;28.77;;;18.08;;
64871;SDS011;51351;51.450;6.614;2024-03-08T06:05:16;23.10;;;14.75;;
64871;SDS011;51351;51.450;6.614;2024-03-08T06:07:42;32.00;;;17.52;;
64871;SDS011;51351;51.450;6.614;2024-03-08T06:10:10;28.48;;;16.95;;
64871;SDS011;51351;51.450;6.614;2024-03-08T06:12:37;23.50;;;14.13;;
64871;SDS011;51351;51.450;6.614;2024-03-08T06:15:07;28.10;;;17.00;;
64871;SDS011;51351;51.450;6.614;2024-03-08T06:17:32;26.58;;;18.20;;
64871;SDS011;51351;51.450;6.614;2024-03-08T06:19:57;24.70;;;15.47;;
64871;SDS011;51351;51.450;6.614;2024-03-08T06:22:23;26.17;;;17.73;;
64871;SDS011;51351;51.450;6.614;2024-03-08T06:24:48;26.60;;;16.13;;
64871;SDS011;51351;51.450;6.614;2024-03-08T06:27:13;24.13;;;14.43;;
64871;SDS011;51351;51.450;6.614;2024-03-08T06:29:39;12.50;;;7.68;;
64871;SDS011;51351;51.450;6.614;2024-03-08T06:32:05;25.88;;;15.45;;
64871;SDS011;51351;51.450;6.614;2024-03-08T06:34:32;27.67;;;16.15;;
64871;SDS011;51351;51.450;6.614;2024-03-08T06:36:57;26.52;;;17.35;;
64871;SDS011;51351;51.450;6.614;2024-03-08T06:39:26;26.20;;;14.45;;
64871;SDS011;51351;51.450;6.614;2024-03-08T06:41:51;20.85;;;15.23;;
64871;SDS011;51351;51.450;6.614;2024-03-08T06:44:19;22.60;;;12.80;;
64871;SDS011;51351;51.450;6.614;2024-03-08T06:46:47;25.63;;;15.70;;
64871;SDS011;51351;51.450;6.614;2024-03-08T06:49:13;22.42;;;15.95;;
64871;SDS011;51351;51.450;6.614;2024-03-08T06:51:38;25.10;;;14.68;;
64871;SDS011;51351;51.450;6.614;2024-03-08T06:54:03;27.58;;;18.15;;
64871;SDS011;51351;51.450;6.614;2024-03-08T06:56:33;33.97;;;17.77;;
64871;SDS011;51351;51.450;6.614;2024-03-08T06:58:59;24.83;;;16.58;;
64871;SDS011;51351;51.450;6.614;2024-03-08T07:01:24;25.50;;;15.52;;
64871;SDS011;51351;51.450;6.614;2024-03-08T07:03:49;23.48;;;18.20;;
64871;SDS011;51351;51.450;6.614;2024-03-08T07:06:17;26.92;;;14.90;;
64871;SDS011;51351;51.450;6.614;2024-03-08T07:08:44;32.60;;;16.75;;
64871;SDS011;51351;51.450;6.614;2024-03-08T07:13:37;23.60;;;14.75;;
64871;SDS011;51351;51.450;6.614;2024-03-08T07:16:04;30.48;;;15.48;;
64871;SDS011;51351;51.450;6.614;2024-03-08T07:18:29;27.98;;;15.95;;
64871;SDS011;51351;51.450;6.614;2024-03-08T07:20:55;27.08;;;15.75;;
64871;SDS011;51351;51.450;6.614;2024-03-08T07:23:20;22.38;;;14.27;;
64871;SDS011;51351;51.450;6.614;2024-03-08T07:26:04;26.88;;;15.82;;
64871;SDS011;51351;51.450;6.614;2024-03-08T07:28:29;29.42;;;16.67;;
64871;SDS011;51351;51.450;6.614;2024-03-08T07:30:56;25.67;;;15.57;;
64871;SDS011;51351;51.450;6.614;2024-03-08T07:33:34;26.38;;;15.90;;
64871;SDS011;51351;51.450;6.614;2024-03-08T07:36:00;30.02;;;16.95;;
64871;SDS011;51351;51.450;6.614;2024-03-08T07:38:26;26.65;;;17.25;;
64871;SDS011;51351;51.450;6.614;2024-03-08T07:40:51;27.20;;;17.10;;
64871;SDS011;51351;51.450;6.614;2024-03-08T07:43:17;25.67;;;14.85;;
64871;SDS011;51351;51.450;6.614;2024-03-08T07:45:42;25.13;;;16.17;;
64871;SDS011;51351;51.450;6.614;2024-03-08T07:48:14;21.45;;;13.27;;
64871;SDS011;51351;51.450;6.614;2024-03-08T07:50:40;24.77;;;14.25;;
64871;SDS011;51351;51.450;6.614;2024-03-08T07:53:08;27.77;;;15.35;;
64871;SDS011;51351;51.450;6.614;2024-03-08T07:55:37;21.52;;;14.02;;
64871;SDS011;51351;51.450;6.614;2024-03-08T07:58:02;23.05;;;15.15;;
64871;SDS011;51351;51.450;6.614;2024-03-08T08:00:28;25.20;;;14.95;;
64871;SDS011;51351;51.450;6.614;2024-03-08T08:02:55;26.17;;;14.98;;
64871;SDS011;51351;51.450;6.614;2024-03-08T08:05:21;27.70;;;16.13;;
64871;SDS011;51351;51.450;6.614;2024-03-08T08:07:46;27.83;;;14.32;;
64871;SDS011;51351;51.450;6.614;2024-03-08T08:10:14;24.50;;;15.23;;
64871;SDS011;51351;51.450;6.614;2024-03-08T08:12:50;27.20;;;16.85;;
64871;SDS011;51351;51.450;6.614;2024-03-08T08:15:16;24.70;;;14.57;;
64871;SDS011;51351;51.450;6.614;2024-03-08T08:17:43;21.92;;;14.77;;
64871;SDS011;51351;51.450;6.614;2024-03-08T08:20:11;27.88;;;16.90;;
64871;SDS011;51351;51.450;6.614;2024-03-08T08:22:41;21.25;;;14.52;;
64871;SDS011;51351;51.450;6.614;2024-03-08T08:25:07;23.65;;;13.85;;
64871;SDS011;51351;51.450;6.614;2024-03-08T08:27:33;23.25;;;13.88;;
64871;SDS011;51351;51.450;6.614;2024-03-08T08:29:58;21.25;;;14.20;;
64871;SDS011;51351;51.450;6.614;2024-03-08T08:32:24;22.60;;;14.20;;
64871;SDS011;51351;51.450;6.614;2024-03-08T08:34:52;25.00;;;15.23;;
64871;SDS011;51351;51.450;6.614;2024-03-08T08:37:18;20.58;;;14.75;;
64871;SDS011;51351;51.450;6.614;2024-03-08T08:39:43;22.52;;;15.48;;
64871;SDS011;51351;51.450;6.614;2024-03-08T08:42:08;23.05;;;15.95;;
64871;SDS011;51351;51.450;6.614;2024-03-08T08:44:34;23.75;;;14.63;;
64871;SDS011;51351;51.450;6.614;2024-03-08T08:47:00;24.90;;;16.15;;
64871;SDS011;51351;51.450;6.614;2024-03-08T08:49:25;28.45;;;16.98;;
64871;SDS011;51351;51.450;6.614;2024-03-08T08:51:51;22.92;;;14.68;;
64871;SDS011;51351;51.450;6.614;2024-03-08T08:54:16;22.63;;;14.30;;
64871;SDS011;51351;51.450;6.614;2024-03-08T08:56:42;17.85;;;12.07;;
64871;SDS011;51351;51.450;6.614;2024-03-08T08:59:09;22.55;;;14.40;;
64871;SDS011;51351;51.450;6.614;2024-03-08T09:01:34;19.33;;;12.70;;
64871;SDS011;51351;51.450;6.614;2024-03-08T09:03:59;20.88;;;14.25;;
64871;SDS011;51351;51.450;6.614;2024-03-08T09:06:25;21.35;;;14.63;;
64871;SDS011;51351;51.450;6.614;2024-03-08T09:08:51;22.75;;;14.43;;
64871;SDS011;51351;51.450;6.614;2024-03-08T09:11:16;20.42;;;12.90;;
64871;SDS011;51351;51.450;6.614;2024-03-08T09:13:44;20.27;;;13.00;;
64871;SDS011;51351;51.450;6.614;2024-03-08T09:16:09;19.83;;;13.10;;
64871;SDS011;51351;51.450;6.614;2024-03-08T09:18:35;18.30;;;11.52;;
64871;SDS011;51351;51.450;6.614;2024-03-08T09:21:01;18.80;;;12.82;;
64871;SDS011;51351;51.450;6.614;2024-03-08T09:23:26;20.33;;;13.23;;
64871;SDS011;51351;51.450;6.614;2024-03-08T09:25:58;21.00;;;13.68;;
64871;SDS011;51351;51.450;6.614;2024-03-08T09:28:24;23.27;;;13.40;;
64871;SDS011;51351;51.450;6.614;2024-03-08T09:30:50;19.05;;;14.50;;
64871;SDS011;51351;51.450;6.614;2024-03-08T09:33:15;19.20;;;11.55;;
64871;SDS011;51351;51.450;6.614;2024-03-08T09:35:44;20.50;;;13.27;;
64871;SDS011;51351;51.450;6.614;2024-03-08T09:38:12;19.50;;;13.45;;
64871;SDS011;51351;51.450;6.614;2024-03-08T09:40:38;21.75;;;12.88;;
64871;SDS011;51351;51.450;6.614;2024-03-08T09:43:03;25.65;;;14.05;;
64871;SDS011;51351;51.450;6.614;2024-03-08T09:45:29;20.95;;;11.55;;
64871;SDS011;51351;51.450;6.614;2024-03-08T09:47:56;20.58;;;14.10;;
64871;SDS011;51351;51.450;6.614;2024-03-08T09:50:22;21.23;;;13.60;;
64871;SDS011;51351;51.450;6.614;2024-03-08T09:52:48;25.27;;;14.10;;
64871;SDS011;51351;51.450;6.614;2024-03-08T09:55:14;20.58;;;12.50;;
64871;SDS011;51351;51.450;6.614;2024-03-08T09:57:43;23.95;;;13.15;;
64871;SDS011;51351;51.450;6.614;2024-03-08T10:02:53;16.87;;;12.20;;
64871;SDS011;51351;51.450;6.614;2024-03-08T10:05:19;20.67;;;11.60;;
64871;SDS011;51351;51.450;6.614;2024-03-08T10:07:44;18.80;;;12.85;;
64871;SDS011;51351;51.450;6.614;2024-03-08T10:10:09;18.90;;;12.57;;
64871;SDS011;51351;51.450;6.614;2024-03-08T10:12:37;16.73;;;11.45;;
64871;SDS011;51351;51.450;6.614;2024-03-08T10:15:03;20.40;;;13.63;;
64871;SDS011;51351;51.450;6.614;2024-03-08T10:17:30;21.65;;;13.45;;
64871;SDS011;51351;51.450;6.614;2024-03-08T10:19:57;19.48;;;12.45;;
64871;SDS011;51351;51.450;6.614;2024-03-08T10:22:25;22.45;;;12.48;;
64871;SDS011;51351;51.450;6.614;2024-03-08T10:24:50;22.67;;;13.60;;
64871;SDS011;51351;51.450;6.614;2024-03-08T10:27:16;20.27;;;13.32;;
64871;SDS011;51351;51.450;6.614;2024-03-08T10:29:42;19.30;;;12.32;;
64871;SDS011;51351;51.450;6.614;2024-03-08T10:32:09;21.27;;;13.80;;
64871;SDS011;51351;51.450;6.614;2024-03-08T10:34:35;20.08;;;13.35;;
64871;SDS011;51351;51.450;6.614;2024-03-08T10:37:03;21.77;;;13.93;;
64871;SDS011;51351;51.450;6.614;2024-03-08T10:39:28;17.90;;;11.73;;
64871;SDS011;51351;51.450;6.614;2024-03-08T10:41:58;22.73;;;12.38;;
64871;SDS011;51351;51.450;6.614;2024-03-08T10:49:25;16.77;;;11.77;;
64871;SDS011;51351;51.450;6.614;2024-03-08T10:51:51;19.67;;;12.38;;
64871;SDS011;51351;51.450;6.614;2024-03-08T10:54:17;21.05;;;12.95;;
64871;SDS011;51351;51.450;6.614;2024-03-08T10:56:44;18.83;;;12.57;;
64871;SDS011;51351;51.450;6.614;2024-03-08T10:59:09;18.23;;;11.38;;
64871;SDS011;51351;51.450;6.614;2024-03-08T11:01:35;17.60;;;12.95;;
64871;SDS011;51351;51.450;6.614;2024-03-08T11:04:03;18.48;;;12.38;;
64871;SDS011;51351;51.450;6.614;2024-03-08T11:09:01;17.25;;;11.07;;
64871;SDS011;51351;51.450;6.614;2024-03-08T11:11:31;13.18;;;7.85;;
64871;SDS011;51351;51.450;6.614;2024-03-08T11:13:57;22.98;;;13.70;;
64871;SDS011;51351;51.450;6.614;2024-03-08T11:18:57;18.27;;;13.00;;
64871;SDS011;51351;51.450;6.614;2024-03-08T11:21:25;12.48;;;8.32;;
64871;SDS011;51351;51.450;6.614;2024-03-08T11:26:20;12.63;;;8.97;;
64871;SDS011;51351;51.450;6.614;2024-03-08T11:28:46;13.63;;;9.13;;
64871;SDS011;51351;51.450;6.614;2024-03-08T11:33:39;8.20;;;5.40;;
64871;SDS011;51351;51.450;6.614;2024-03-08T11:36:12;5.68;;;4.40;;
64871;SDS011;51351;51.450;6.614;2024-03-08T11:38:44;11.65;;;7.28;;
64871;SDS011;51351;51.450;6.614;2024-03-08T11:41:12;16.45;;;9.77;;
64871;SDS011;51351;51.450;6.614;2024-03-08T11:43:39;12.98;;;9.07;;
64871;SDS011;51351;51.450;6.614;2024-03-08T11:46:13;18.60;;;11.95;;
64871;SDS011;51351;51.450;6.614;2024-03-08T11:48:42;15.18;;;10.35;;
64871;SDS011;51351;51.450;6.614;2024-03-08T11:51:11;14.25;;;10.65;;
64871;SDS011;51351;51.450;6.614;2024-03-08T11:53:37;16.80;;;11.40;;
64871;SDS011;51351;51.450;6.614;2024-03-08T11:56:09;16.15;;;11.63;;
64871;SDS011;51351;51.450;6.614;2024-03-08T11:58:34;15.65;;;10.35;;
64871;SDS011;51351;51.450;6.614;2024-03-08T12:01:08;18.08;;;12.43;;
64871;SDS011;51351;51.450;6.614;2024-03-08T12:03:42;23.75;;;13.98;;
64871;SDS011;51351;51.450;6.614;2024-03-08T12:06:08;20.38;;;13.35;;
64871;SDS011;51351;51.450;6.614;2024-03-08T12:08:35;19.80;;;13.00;;
64871;SDS011;51351;51.450;6.614;2024-03-08T12:11:00;19.25;;;12.93;;
64871;SDS011;51351;51.450;6.614;2024-03-08T12:13:29;26.13;;;13.50;;
64871;SDS011;51351;51.450;6.614;2024-03-08T12:15:58;26.90;;;13.82;;
64871;SDS011;51351;51.450;6.614;2024-03-08T12:18:27;17.92;;;12.05;;
64871;SDS011;51351;51.450;6.614;2024-03-08T12:21:09;21.98;;;14.55;;
64871;SDS011;51351;51.450;6.614;2024-03-08T12:23:45;21.63;;;13.98;;
64871;SDS011;51351;51.450;6.614;2024-03-08T12:28:41;17.23;;;12.55;;
64871;SDS011;51351;51.450;6.614;2024-03-08T12:31:06;18.98;;;13.20;;
64871;SDS011;51351;51.450;6.614;2024-03-08T12:33:35;19.33;;;12.75;;
64871;SDS011;51351;51.450;6.614;2024-03-08T12:36:01;19.58;;;12.25;;
64871;SDS011;51351;51.450;6.614;2024-03-08T12:38:27;21.30;;;13.60;;
64871;SDS011;51351;51.450;6.614;2024-03-08T12:40:59;18.02;;;12.98;;
64871;SDS011;51351;51.450;6.614;2024-03-08T12:43:25;19.90;;;12.25;;
64871;SDS011;51351;51.450;6.614;2024-03-08T12:45:51;17.98;;;12.68;;
64871;SDS011;51351;51.450;6.614;2024-03-08T12:48:16;17.67;;;12.10;;
64871;SDS011;51351;51.450;6.614;2024-03-08T12:50:42;23.13;;;13.32;;
64871;SDS011;51351;51.450;6.614;2024-03-08T12:53:12;20.63;;;11.85;;
64871;SDS011;51351;51.450;6.614;2024-03-08T12:55:38;18.02;;;12.63;;
64871;SDS011;51351;51.450;6.614;2024-03-08T12:58:04;19.85;;;13.40;;
64871;SDS011;51351;51.450;6.614;2024-03-08T13:00:31;18.15;;;12.60;;
64871;SDS011;51351;51.450;6.614;2024-03-08T13:02:56;15.87;;;11.43;;
64871;SDS011;51351;51.450;6.614;2024-03-08T13:05:21;12.27;;;8.70;;
64871;SDS011;51351;51.450;6.614;2024-03-08T13:07:47;17.88;;;12.93;;
64871;SDS011;51351;51.450;6.614;2024-03-08T13:10:15;14.82;;;10.20;;
64871;SDS011;51351;51.450;6.614;2024-03-08T13:12:44;13.32;;;9.82;;
64871;SDS011;51351;51.450;6.614;2024-03-08T13:15:09;14.88;;;10.23;;
64871;SDS011;51351;51.450;6.614;2024-03-08T13:17:45;17.35;;;11.07;;
64871;SDS011;51351;51.450;6.614;2024-03-08T13:20:11;15.25;;;11.07;;
64871;SDS011;51351;51.450;6.614;2024-03-08T13:22:41;21.52;;;11.43;;
64871;SDS011;51351;51.450;6.614;2024-03-08T13:25:07;16.05;;;10.90;;
64871;SDS011;51351;51.450;6.614;2024-03-08T13:27:38;16.55;;;10.38;;
64871;SDS011;51351;51.450;6.614;2024-03-08T13:30:04;18.08;;;11.93;;
64871;SDS011;51351;51.450;6.614;2024-03-08T13:32:30;11.77;;;8.93;;
64871;SDS011;51351;51.450;6.614;2024-03-08T13:34:56;12.18;;;7.50;;
64871;SDS011;51351;51.450;6.614;2024-03-08T13:37:21;13.13;;;9.05;;
64871;SDS011;51351;51.450;6.614;2024-03-08T13:39:47;13.85;;;9.45;;
64871;SDS011;51351;51.450;6.614;2024-03-08T13:42:13;11.07;;;7.72;;
64871;SDS011;51351;51.450;6.614;2024-03-08T13:44:43;8.30;;;5.45;;
64871;SDS011;51351;51.450;6.614;2024-03-08T13:47:09;10.63;;;6.20;;
64871;SDS011;51351;51.450;6.614;2024-03-08T13:49:37;9.30;;;5.95;;
64871;SDS011;51351;51.450;6.614;2024-03-08T13:52:02;7.35;;;5.55;;
64871;SDS011;51351;51.450;6.614;2024-03-08T13:54:28;8.75;;;5.43;;
64871;SDS011;51351;51.450;6.614;2024-03-08T13:56:56;9.43;;;5.68;;
64871;SDS011;51351;51.450;6.614;2024-03-08T13:59:21;8.98;;;6.13;;
64871;SDS011;51351;51.450;6.614;2024-03-08T14:01:54;6.97;;;4.82;;
64871;SDS011;51351;51.450;6.614;2024-03-08T14:04:19;9.50;;;6.32;;
64871;SDS011;51351;51.450;6.614;2024-03-08T14:06:45;7.57;;;5.68;;
64871;SDS011;51351;51.450;6.614;2024-03-08T14:09:11;7.22;;;4.47;;
64871;SDS011;51351;51.450;6.614;2024-03-08T14:11:42;7.78;;;5.80;;
64871;SDS011;51351;51.450;6.614;2024-03-08T14:14:09;7.45;;;4.47;;
64871;SDS011;51351;51.450;6.614;2024-03-08T14:16:34;6.60;;;4.00;;
64871;SDS011;51351;51.450;6.614;2024-03-08T14:19:02;7.68;;;4.90;;
64871;SDS011;51351;51.450;6.614;2024-03-08T14:21:30;10.70;;;5.80;;
64871;SDS011;51351;51.450;6.614;2024-03-08T14:23:56;7.32;;;4.45;;
64871;SDS011;51351;51.450;6.614;2024-03-08T14:26:21;9.10;;;6.80;;
64871;SDS011;51351;51.450;6.614;2024-03-08T14:28:47;8.63;;;5.28;;
64871;SDS011;51351;51.450;6.614;2024-03-08T14:31:12;8.45;;;5.75;;
64871;SDS011;51351;51.450;6.614;2024-03-08T14:33:37;6.95;;;5.70;;
64871;SDS011;51351;51.450;6.614;2024-03-08T14:36:03;8.83;;;6.67;;
64871;SDS011;51351;51.450;6.614;2024-03-08T14:38:30;8.82;;;5.50;;
64871;SDS011;51351;51.450;6.614;2024-03-08T14:40:55;6.60;;;3.83;;